createdAt,value
2023-05-12T05:41:38.600Z,100972.24
2023-05-12T05:44:19.012Z,100971.86
2023-05-12T05:46:53.571Z,100973.56
2023-05-12T05:50:04.577Z,100968.05
2023-05-12T05:53:27.755Z,100964.98
2023-05-12T05:56:25.990Z,100963.44
2023-05-12T05:58:53.671Z,100965.92
2023-05-12T06:01:20.633Z,100961.69
2023-05-12T06:03:47.989Z,100963.23
2023-05-12T06:06:16.218Z,100959.84
2023-05-12T06:08:46.205Z,100955.91
2023-05-12T06:11:15.347Z,100957.73
2023-05-12T06:13:43.543Z,100957.14
2023-05-12T06:16:10.899Z,100952.26
2023-05-12T06:18:54.306Z,100955.99
2023-05-12T06:21:50.982Z,100955.55
2023-05-12T06:24:51.721Z,100955.09
2023-05-12T06:27:47.366Z,100956.04
2023-05-12T06:30:16.408Z,100952.98
2023-05-12T06:32:50.014Z,100955.70
2023-05-12T06:35:17.373Z,100953.33
2023-05-12T06:37:49.530Z,100951.42
2023-05-12T06:40:21.241Z,100953.91
2023-05-12T06:42:50.230Z,100954.60
2023-05-12T06:45:20.422Z,100954.06
2023-05-12T06:47:48.973Z,100955.67
2023-05-12T06:50:17.277Z,100952.71
2023-05-12T06:52:46.753Z,100953.06
2023-05-12T06:55:14.878Z,100950.80
2023-05-12T06:57:59.426Z,100947.72
2023-05-12T07:00:31.920Z,100945.63
2023-05-12T07:02:59.586Z,100947.23
2023-05-12T07:05:28.523Z,100948.84
2023-05-12T07:07:55.740Z,100949.16
2023-05-12T07:10:22.740Z,100946.98
2023-05-12T07:12:50.376Z,100950.42
2023-05-12T07:15:18.734Z,100950.16
2023-05-12T07:17:51.087Z,100945.31
2023-05-12T07:20:19.858Z,100945.35
2023-05-12T07:22:48.241Z,100944.40
2023-05-12T07:25:16.100Z,100947.09
2023-05-12T07:27:43.452Z,100942.52
2023-05-12T07:30:10.809Z,100940.27
2023-05-12T07:32:37.698Z,100941.44
2023-05-12T07:35:05.276Z,100939.18
2023-05-12T07:37:32.333Z,100941.94
2023-05-12T07:39:59.292Z,100939.73
2023-05-12T07:42:27.073Z,100935.55
2023-05-12T07:44:54.147Z,100936.17
2023-05-12T07:47:21.069Z,100934.13
2023-05-12T07:49:48.055Z,100930.57
2023-05-12T07:52:14.986Z,100928.87
2023-05-12T07:54:41.942Z,100928.23
2023-05-12T07:57:13.044Z,100923.27
2023-05-12T07:59:40.738Z,100923.76
2023-05-12T08:02:08.435Z,100921.08
2023-05-12T08:04:45.996Z,100928.73
2023-05-12T08:07:13.546Z,100930.44
2023-05-12T08:09:40.617Z,100929.88
2023-05-12T08:12:09.404Z,100930.21
2023-05-12T08:14:37.314Z,100922.78
2023-05-12T08:17:35.067Z,100917.67
2023-05-12T08:20:14.115Z,100913.85
2023-05-12T08:22:41.804Z,100918.63
2023-05-12T08:25:17.850Z,100917.56
2023-05-12T08:27:54.182Z,100911.46
2023-05-12T08:30:22.627Z,100913.39
2023-05-12T08:32:49.831Z,100909.14
2023-05-12T08:35:16.825Z,100912.96
2023-05-12T08:37:47.747Z,100912.20
2023-05-12T08:40:23.680Z,100908.52
2023-05-12T08:43:25.402Z,100908.45
2023-05-12T08:45:57.875Z,100907.27
2023-05-12T08:48:27.377Z,100906.88
2023-05-12T08:50:54.440Z,100905.61
2023-05-12T08:53:22.418Z,100906.70
2023-05-12T08:57:08.078Z,100910.09
2023-05-12T08:58:41.630Z,100901.25
2023-05-12T09:01:09.848Z,100901.52
2023-05-12T09:03:36.890Z,100899.94
2023-05-12T09:06:03.942Z,100897.58
2023-05-12T09:08:34.976Z,100901.56
2023-05-12T09:11:02.267Z,100903.16
2023-05-12T09:13:52.598Z,100897.92
2023-05-12T09:16:23.601Z,100892.18
2023-05-12T09:18:54.738Z,100891.86
2023-05-12T09:21:21.992Z,100891.36
2023-05-12T09:24:06.799Z,100893.34
2023-05-12T09:26:54.852Z,100885.52
2023-05-12T09:29:31.334Z,100884.02
2023-05-12T09:32:02.970Z,100875.74
2023-05-12T09:34:32.095Z,100871.96
2023-05-12T09:37:01.356Z,100871.21
2023-05-12T09:39:30.213Z,100871.01
2023-05-12T09:41:57.428Z,100871.89
2023-05-12T09:44:24.935Z,100867.61
2023-05-12T09:46:52.833Z,100871.73
2023-05-12T09:49:20.520Z,100869.90
2023-05-12T09:51:47.680Z,100866.67
2023-05-12T09:54:28.251Z,100867.34
2023-05-12T09:56:58.679Z,100867.66
2023-05-12T09:59:33.744Z,100868.58
2023-05-12T10:02:01.765Z,100859.91
2023-05-12T10:04:29.253Z,100850.49
2023-05-12T10:06:56.481Z,100856.09
2023-05-12T10:09:35.668Z,100858.27
2023-05-12T10:12:08.984Z,100856.70
2023-05-12T10:14:36.161Z,100855.54
2023-05-12T10:17:03.262Z,100851.45
2023-05-12T10:19:30.649Z,100842.14
2023-05-12T10:21:57.863Z,100842.72
2023-05-12T10:24:27.362Z,100846.54
2023-05-12T10:26:56.718Z,100843.91
2023-05-12T10:29:33.172Z,100842.86
2023-05-12T10:32:01.326Z,100838.36
2023-05-12T10:34:37.012Z,100840.71
2023-05-12T10:37:11.290Z,100840.08
2023-05-12T10:39:47.227Z,100835.72
2023-05-12T10:42:26.163Z,100837.52
2023-05-12T10:44:55.556Z,100838.86
2023-05-12T10:47:29.530Z,100841.27
2023-05-12T10:49:59.881Z,100834.56
2023-05-12T10:52:26.894Z,100833.17
2023-05-12T10:55:00.339Z,100835.48
2023-05-12T10:57:27.784Z,100829.56
2023-05-12T10:59:59.640Z,100833.61
2023-05-12T11:02:36.689Z,100831.20
2023-05-12T11:05:11.164Z,100834.23
2023-05-12T11:07:39.765Z,100836.90
2023-05-12T11:10:08.048Z,100834.35
2023-05-12T11:12:38.166Z,100838.22
2023-05-12T11:15:06.028Z,100833.23
2023-05-12T11:17:33.240Z,100830.95
2023-05-12T11:20:01.584Z,100821.84
2023-05-12T11:22:28.875Z,100820.41
2023-05-12T11:24:56.108Z,100821.73
2023-05-12T11:27:23.811Z,100821.63
2023-05-12T11:30:01.231Z,100816.66
2023-05-12T11:32:29.856Z,100816.12
2023-05-12T11:35:16.965Z,100813.80
2023-05-12T11:37:44.634Z,100814.72
2023-05-12T11:40:15.688Z,100817.14
2023-05-12T11:42:46.255Z,100816.93
2023-05-12T11:45:21.713Z,100817.52
2023-05-12T11:47:49.028Z,100817.23
2023-05-12T11:50:25.954Z,100814.77
2023-05-12T11:52:53.077Z,100815.84
2023-05-12T11:55:22.451Z,100821.30
2023-05-12T11:58:01.026Z,100818.67
2023-05-12T12:00:32.784Z,100819.48
2023-05-12T12:03:10.156Z,100816.25
2023-05-12T12:05:37.816Z,100815.20
2023-05-12T12:08:14.992Z,100815.30
2023-05-12T12:10:45.688Z,100814.52
2023-05-12T12:13:22.674Z,100813.34
2023-05-12T12:15:50.414Z,100811.44
2023-05-12T12:18:17.685Z,100807.20
2023-05-12T12:20:45.111Z,100802.86
2023-05-12T12:23:12.065Z,100802.13
2023-05-12T12:25:39.041Z,100805.95
2023-05-12T12:28:05.961Z,100803.95
2023-05-12T12:30:33.003Z,100799.25
2023-05-12T12:33:00.014Z,100798.38
2023-05-12T12:35:27.168Z,100797.40
2023-05-12T12:37:54.248Z,100796.52
2023-05-12T12:40:21.424Z,100795.44
2023-05-12T12:42:48.389Z,100792.71
2023-05-12T12:45:15.447Z,100790.75
2023-05-12T12:47:43.319Z,100788.56
2023-05-12T12:50:10.781Z,100786.74
2023-05-12T12:52:38.486Z,100783.37
2023-05-12T12:55:06.726Z,100782.09
2023-05-12T12:57:33.647Z,100781.66
2023-05-12T13:00:01.456Z,100776.31
2023-05-12T13:02:28.451Z,100775.31
2023-05-12T13:04:55.494Z,100774.44
2023-05-12T13:07:22.489Z,100770.14
2023-05-12T13:09:49.402Z,100773.34
2023-05-12T13:12:16.699Z,100778.80
2023-05-12T13:14:43.587Z,100779.82
2023-05-12T13:17:10.556Z,100778.42
2023-05-12T13:19:38.158Z,100781.23
2023-05-12T13:22:05.591Z,100784.23
2023-05-12T13:24:33.040Z,100784.27
2023-05-12T13:27:00.067Z,100783.57
2023-05-12T13:29:27.081Z,100783.79
2023-05-12T13:31:54.530Z,100781.77
2023-05-12T13:34:21.443Z,100782.97
2023-05-12T13:36:48.677Z,100781.33
2023-05-12T13:39:16.412Z,100777.50
2023-05-12T13:41:44.779Z,100777.35
2023-05-12T13:44:11.907Z,100775.34
2023-05-12T13:46:38.941Z,100774.67
2023-05-12T13:49:05.989Z,100776.73
2023-05-12T13:51:32.897Z,100769.42
2023-05-12T13:53:59.788Z,100766.52
2023-05-12T13:56:26.867Z,100762.64
2023-05-12T13:58:53.859Z,100758.28
2023-05-12T14:01:20.844Z,100761.97
2023-05-12T14:03:47.853Z,100759.11
2023-05-12T14:06:14.802Z,100756.19
2023-05-12T14:08:41.946Z,100753.56
2023-05-12T14:11:08.879Z,100753.46
2023-05-12T14:13:36.151Z,100748.92
2023-05-12T14:16:04.314Z,100752.10
2023-05-12T14:18:31.389Z,100757.90
2023-05-12T14:20:58.446Z,100756.02
2023-05-12T14:23:25.373Z,100758.46
2023-05-12T14:25:52.260Z,100760.48
2023-05-12T14:28:19.310Z,100763.23
2023-05-12T14:30:48.746Z,100760.20
2023-05-12T14:33:15.842Z,100757.92
2023-05-12T14:35:43.474Z,100756.92
2023-05-12T14:38:15.237Z,100758.29
2023-05-12T14:40:42.743Z,100758.16
2023-05-12T14:43:09.773Z,100759.34
2023-05-12T14:45:36.639Z,100759.40
2023-05-12T14:48:03.918Z,100763.01
2023-05-12T14:50:30.990Z,100763.66
2023-05-12T14:52:58.004Z,100763.24
2023-05-12T14:55:25.332Z,100765.02
2023-05-12T14:57:52.305Z,100764.02
2023-05-12T15:00:21.408Z,100763.50
2023-05-12T15:02:48.778Z,100762.10
2023-05-12T15:05:16.313Z,100762.21
2023-05-12T15:07:43.295Z,100762.23
2023-05-12T15:10:11.131Z,100761.88
2023-05-12T15:12:38.185Z,100755.00
2023-05-12T15:15:08.536Z,100750.31
2023-05-12T15:17:35.552Z,100748.02
2023-05-12T15:20:03.831Z,100748.27
2023-05-12T15:22:31.717Z,100750.29
2023-05-12T15:24:58.880Z,100746.23
2023-05-12T15:27:26.474Z,100746.17
2023-05-12T15:29:54.014Z,100747.38
2023-05-12T15:32:20.915Z,100746.95
2023-05-12T15:34:47.855Z,100749.08
2023-05-12T15:37:14.886Z,100748.41
2023-05-12T15:39:41.790Z,100750.27
2023-05-12T15:42:09.418Z,100752.59
2023-05-12T15:44:36.613Z,100752.40
2023-05-12T15:47:04.051Z,100755.18
2023-05-12T15:49:30.973Z,100750.82
2023-05-12T15:51:58.105Z,100753.70
2023-05-12T15:54:26.561Z,100753.52
2023-05-12T15:56:53.532Z,100752.98
2023-05-12T15:59:20.750Z,100753.52
2023-05-12T16:01:47.893Z,100753.20
2023-05-12T16:04:14.892Z,100755.26
2023-05-12T16:06:41.850Z,100756.02
2023-05-12T16:09:09.596Z,100756.02
2023-05-12T16:11:36.622Z,100755.91
2023-05-12T16:14:03.685Z,100756.21
2023-05-12T16:16:30.985Z,100758.08
2023-05-12T16:18:58.285Z,100755.77
2023-05-12T16:21:25.168Z,100756.35
2023-05-12T16:23:52.130Z,100758.46
2023-05-12T16:26:19.426Z,100762.23
2023-05-12T16:28:46.693Z,100767.21
2023-05-12T16:31:18.181Z,100765.58
2023-05-12T16:33:45.708Z,100768.32
2023-05-12T16:36:13.172Z,100765.96
2023-05-12T16:38:40.133Z,100768.36
2023-05-12T16:41:07.742Z,100771.10
2023-05-12T16:43:34.818Z,100773.36
2023-05-12T16:46:02.538Z,100774.54
2023-05-12T16:48:34.345Z,100778.69
2023-05-12T16:51:05.684Z,100784.95
2023-05-12T16:53:33.152Z,100787.66
2023-05-12T16:56:00.137Z,100785.78
2023-05-12T16:58:33.430Z,100786.08
2023-05-12T17:01:01.179Z,100783.23
2023-05-12T17:03:29.230Z,100787.50
2023-05-12T17:05:56.527Z,100787.79
2023-05-12T17:08:24.593Z,100790.45
2023-05-12T17:10:51.975Z,100792.84
2023-05-12T17:13:19.028Z,100796.21
2023-05-12T17:15:46.037Z,100795.39
2023-05-12T17:18:13.178Z,100795.29
2023-05-12T17:20:40.211Z,100793.23
2023-05-12T17:23:08.437Z,100793.12
2023-05-12T17:25:36.815Z,100795.13
2023-05-12T17:28:05.080Z,100792.19
2023-05-12T17:30:32.230Z,100797.46
2023-05-12T17:32:59.324Z,100800.83
2023-05-12T17:35:26.469Z,100797.14
2023-05-12T17:37:55.700Z,100803.84
2023-05-12T17:40:22.917Z,100808.13
2023-05-12T17:42:52.803Z,100806.40
2023-05-12T17:45:20.267Z,100813.10
2023-05-12T17:47:49.268Z,100816.81
2023-05-12T17:50:16.434Z,100815.02
2023-05-12T17:52:43.722Z,100823.28
2023-05-12T17:55:10.918Z,100823.79
2023-05-12T17:57:38.295Z,100824.84
2023-05-12T18:00:10.530Z,100828.48
2023-05-12T18:02:44.037Z,100827.89
2023-05-12T18:05:11.235Z,100823.97
2023-05-12T18:07:38.233Z,100823.88
2023-05-12T18:10:09.417Z,100829.03
2023-05-12T18:12:37.136Z,100832.05
2023-05-12T18:15:05.072Z,100834.21
2023-05-12T18:17:32.665Z,100835.16
2023-05-12T18:20:00.076Z,100834.70
2023-05-12T18:22:27.347Z,100841.10
2023-05-12T18:24:54.631Z,100845.19
2023-05-12T18:27:21.590Z,100848.94
2023-05-12T18:29:48.626Z,100853.38
2023-05-12T18:32:15.639Z,100854.65
2023-05-12T18:34:44.322Z,100853.45
2023-05-12T18:37:14.516Z,100852.59
2023-05-12T18:39:42.929Z,100850.82
2023-05-12T18:42:11.153Z,100852.23
2023-05-12T18:44:40.595Z,100855.05
2023-05-12T18:47:08.677Z,100855.58
2023-05-12T18:49:36.274Z,100854.53
2023-05-12T18:52:03.548Z,100857.69
2023-05-12T18:54:30.827Z,100856.98
2023-05-12T18:56:57.834Z,100860.65
2023-05-12T18:59:24.826Z,100859.41
2023-05-12T19:01:51.789Z,100862.03
2023-05-12T19:04:19.682Z,100860.60
2023-05-12T19:06:47.035Z,100861.09
2023-05-12T19:09:14.052Z,100861.76
2023-05-12T19:11:40.999Z,100859.44
2023-05-12T19:14:08.033Z,100854.49
2023-05-12T19:16:36.445Z,100853.58
2023-05-12T19:19:03.537Z,100854.92
2023-05-12T19:21:32.413Z,100856.98
2023-05-12T19:23:59.440Z,100859.90
2023-05-12T19:26:26.988Z,100860.34
2023-05-12T19:28:54.053Z,100862.84
2023-05-12T19:31:21.056Z,100859.55
2023-05-12T19:33:47.984Z,100855.91
2023-05-12T19:36:14.947Z,100859.98
2023-05-12T19:38:43.813Z,100857.43
2023-05-12T19:41:11.002Z,100856.48
2023-05-12T19:43:37.982Z,100856.00
2023-05-12T19:46:05.015Z,100858.45
2023-05-12T19:48:32.454Z,100855.50
2023-05-12T19:50:59.364Z,100857.27
2023-05-12T19:53:26.909Z,100856.30
2023-05-12T19:55:54.035Z,100858.29
2023-05-12T19:58:20.960Z,100857.88
2023-05-12T20:00:48.115Z,100853.57
2023-05-12T20:03:15.429Z,100857.98
2023-05-12T20:05:42.715Z,100855.76
2023-05-12T20:08:09.722Z,100857.20
2023-05-12T20:10:36.778Z,100856.21
2023-05-12T20:13:04.597Z,100857.86
2023-05-12T20:15:31.697Z,100857.38
2023-05-12T20:17:58.630Z,100853.93
2023-05-12T20:20:25.822Z,100850.57
2023-05-12T20:22:52.852Z,100852.59
2023-05-12T20:25:20.032Z,100851.16
2023-05-12T20:27:48.227Z,100851.29
2023-05-12T20:30:15.134Z,100850.73
2023-05-12T20:32:43.659Z,100852.23
2023-05-12T20:35:10.944Z,100858.13
2023-05-12T20:37:39.115Z,100858.80
2023-05-12T20:40:07.214Z,100857.89
2023-05-12T20:42:34.308Z,100858.59
2023-05-12T20:45:01.393Z,100857.70
2023-05-12T20:47:30.603Z,100859.21
2023-05-12T20:49:57.855Z,100861.58
2023-05-12T20:52:28.978Z,100859.95
2023-05-12T20:54:57.993Z,100858.20
2023-05-12T20:57:25.871Z,100861.83
2023-05-12T20:59:52.867Z,100865.10
2023-05-12T21:02:19.934Z,100870.58
2023-05-12T21:04:46.872Z,100871.19
2023-05-12T21:07:13.875Z,100871.02
2023-05-12T21:09:40.852Z,100866.23
2023-05-12T21:12:08.477Z,100867.53
2023-05-12T21:14:39.743Z,100865.58
2023-05-12T21:17:08.058Z,100871.06
2023-05-12T21:19:36.217Z,100877.34
2023-05-12T21:22:03.987Z,100875.86
2023-05-12T21:24:31.062Z,100873.42
2023-05-12T21:26:58.422Z,100876.70
2023-05-12T21:29:25.565Z,100876.85
2023-05-12T21:31:52.677Z,100876.04
2023-05-12T21:34:19.848Z,100873.36
2023-05-12T21:36:46.986Z,100871.48
2023-05-12T21:39:13.873Z,100873.11
2023-05-12T21:41:40.980Z,100876.80
2023-05-12T21:44:10.418Z,100875.46
2023-05-12T21:46:38.293Z,100877.86
2023-05-12T21:49:05.382Z,100872.94
2023-05-12T21:51:33.271Z,100874.85
2023-05-12T21:54:00.865Z,100876.80
2023-05-12T21:56:27.883Z,100877.91
2023-05-12T21:58:54.829Z,100877.52
2023-05-12T22:01:21.826Z,100882.30
2023-05-12T22:03:49.515Z,100880.63
2023-05-12T22:06:16.626Z,100879.41
2023-05-12T22:08:43.708Z,100882.68
2023-05-12T22:11:11.396Z,100884.27
2023-05-12T22:13:38.423Z,100886.02
2023-05-12T22:16:05.923Z,100888.81
2023-05-12T22:18:33.464Z,100886.64
2023-05-12T22:21:00.707Z,100890.16
2023-05-12T22:23:27.597Z,100889.89
2023-05-12T22:25:54.653Z,100889.31
2023-05-12T22:28:21.585Z,100892.98
2023-05-12T22:30:48.577Z,100891.91
2023-05-12T22:33:15.575Z,100890.59
2023-05-12T22:35:42.844Z,100890.80
2023-05-12T22:38:09.960Z,100888.65
2023-05-12T22:40:36.865Z,100883.46
2023-05-12T22:43:03.816Z,100884.87
2023-05-12T22:45:31.068Z,100882.52
2023-05-12T22:47:58.288Z,100884.76
2023-05-12T22:50:25.473Z,100882.52
2023-05-12T22:52:57.262Z,100880.60
2023-05-12T22:55:27.360Z,100880.96
2023-05-12T22:57:54.414Z,100878.39
2023-05-12T23:00:21.689Z,100882.44
2023-05-12T23:02:48.982Z,100879.08
2023-05-12T23:05:16.126Z,100878.63
2023-05-12T23:07:43.037Z,100877.80
2023-05-12T23:10:10.540Z,100874.91
2023-05-12T23:12:37.520Z,100875.98
2023-05-12T23:15:04.909Z,100877.33
2023-05-12T23:17:32.117Z,100875.49
2023-05-12T23:19:59.255Z,100871.95
2023-05-12T23:22:26.218Z,100873.14
2023-05-12T23:24:53.641Z,100877.31
2023-05-12T23:27:21.060Z,100874.20
2023-05-12T23:29:47.916Z,100875.21
2023-05-12T23:32:14.889Z,100873.52
2023-05-12T23:34:41.867Z,100870.83
2023-05-12T23:37:08.880Z,100872.08
2023-05-12T23:39:36.032Z,100873.62
2023-05-12T23:42:03.898Z,100871.94
2023-05-12T23:44:30.976Z,100870.49
2023-05-12T23:46:58.035Z,100868.66
2023-05-12T23:49:24.939Z,100869.59
2023-05-12T23:51:51.850Z,100870.95
2023-05-12T23:54:18.898Z,100865.39
2023-05-12T23:56:46.097Z,100867.45
2023-05-12T23:59:12.949Z,100866.30
